sensor_id;sensor_type;location;lat;lon;timestamp;P1;durP1;ratioP1;P2;durP2;ratioP2
62535;SDS011;63050;47.514;18.920;2022-12-24T00:00:34;25.90;;;19.50;;
62535;SDS011;63050;47.514;18.920;2022-12-24T00:05:36;26.80;;;19.70;;
62535;SDS011;63050;47.514;18.920;2022-12-24T00:10:37;21.80;;;18.20;;
62535;SDS011;63050;47.514;18.920;2022-12-24T00:15:38;25.20;;;19.20;;
62535;SDS011;63050;47.514;18.920;2022-12-24T00:20:39;26.40;;;18.80;;
62535;SDS011;63050;47.514;18.920;2022-12-24T00:25:40;25.10;;;19.00;;
62535;SDS011;63050;47.514;18.920;2022-12-24T00:30:42;28.00;;;19.10;;
62535;SDS011;63050;47.514;18.920;2022-12-24T00:35:43;23.30;;;18.40;;
62535;SDS011;63050;47.514;18.920;2022-12-24T00:40:44;25.20;;;19.40;;
62535;SDS011;63050;47.514;18.920;2022-12-24T00:45:45;21.70;;;16.80;;
62535;SDS011;63050;47.514;18.920;2022-12-24T00:50:46;26.00;;;20.10;;
62535;SDS011;63050;47.514;18.920;2022-12-24T00:55:48;28.10;;;21.00;;
62535;SDS011;63050;47.514;18.920;2022-12-24T01:00:49;26.20;;;19.70;;
62535;SDS011;63050;47.514;18.920;2022-12-24T01:05:50;29.20;;;20.80;;
62535;SDS011;63050;47.514;18.920;2022-12-24T01:10:51;27.50;;;21.00;;
62535;SDS011;63050;47.514;18.920;2022-12-24T01:15:52;38.80;;;24.00;;
62535;SDS011;63050;47.514;18.920;2022-12-24T01:20:55;27.70;;;21.00;;
62535;SDS011;63050;47.514;18.920;2022-12-24T01:31:02;27.70;;;20.70;;
62535;SDS011;63050;47.514;18.920;2022-12-24T01:36:09;29.10;;;21.50;;
62535;SDS011;63050;47.514;18.920;2022-12-24T01:41:15;29.40;;;21.30;;
62535;SDS011;63050;47.514;18.920;2022-12-24T01:46:36;30.50;;;22.30;;
62535;SDS011;63050;47.514;18.920;2022-12-24T01:57:06;26.00;;;19.90;;
62535;SDS011;63050;47.514;18.920;2022-12-24T02:02:10;26.60;;;19.40;;
62535;SDS011;63050;47.514;18.920;2022-12-24T02:07:12;26.40;;;19.90;;
62535;SDS011;63050;47.514;18.920;2022-12-24T02:12:13;24.90;;;19.50;;
62535;SDS011;63050;47.514;18.920;2022-12-24T02:22:33;25.20;;;18.60;;
62535;SDS011;63050;47.514;18.920;2022-12-24T02:38:15;26.00;;;18.50;;
62535;SDS011;63050;47.514;18.920;2022-12-24T02:43:24;21.60;;;17.10;;
62535;SDS011;63050;47.514;18.920;2022-12-24T02:48:28;23.90;;;18.30;;
62535;SDS011;63050;47.514;18.920;2022-12-24T02:53:30;22.70;;;17.10;;
62535;SDS011;63050;47.514;18.920;2022-12-24T03:03:36;22.50;;;17.70;;
62535;SDS011;63050;47.514;18.920;2022-12-24T03:13:42;20.50;;;16.90;;
62535;SDS011;63050;47.514;18.920;2022-12-24T03:18:45;22.00;;;17.20;;
62535;SDS011;63050;47.514;18.920;2022-12-24T03:23:48;24.30;;;19.50;;
62535;SDS011;63050;47.514;18.920;2022-12-24T03:28:50;23.90;;;19.90;;
62535;SDS011;63050;47.514;18.920;2022-12-24T03:33:51;28.10;;;20.70;;
62535;SDS011;63050;47.514;18.920;2022-12-24T03:38:52;26.50;;;21.60;;
62535;SDS011;63050;47.514;18.920;2022-12-24T03:43:53;21.30;;;17.60;;
62535;SDS011;63050;47.514;18.920;2022-12-24T03:48:54;24.20;;;20.00;;
62535;SDS011;63050;47.514;18.920;2022-12-24T03:53:56;24.60;;;19.40;;
62535;SDS011;63050;47.514;18.920;2022-12-24T03:58:57;21.40;;;17.30;;
62535;SDS011;63050;47.514;18.920;2022-12-24T04:03:58;20.80;;;17.30;;
62535;SDS011;63050;47.514;18.920;2022-12-24T04:08:59;21.50;;;17.10;;
62535;SDS011;63050;47.514;18.920;2022-12-24T04:14:04;22.10;;;17.90;;
62535;SDS011;63050;47.514;18.920;2022-12-24T04:19:05;21.50;;;18.00;;
62535;SDS011;63050;47.514;18.920;2022-12-24T04:24:06;22.10;;;17.90;;
62535;SDS011;63050;47.514;18.920;2022-12-24T04:29:07;23.20;;;18.80;;
62535;SDS011;63050;47.514;18.920;2022-12-24T04:34:08;22.00;;;17.40;;
62535;SDS011;63050;47.514;18.920;2022-12-24T04:39:09;22.60;;;17.70;;
62535;SDS011;63050;47.514;18.920;2022-12-24T04:44:10;20.60;;;16.80;;
62535;SDS011;63050;47.514;18.920;2022-12-24T04:49:11;20.50;;;17.30;;
62535;SDS011;63050;47.514;18.920;2022-12-24T04:54:12;19.00;;;15.70;;
62535;SDS011;63050;47.514;18.920;2022-12-24T04:59:14;18.70;;;16.70;;
62535;SDS011;63050;47.514;18.920;2022-12-24T05:04:15;20.00;;;16.70;;
62535;SDS011;63050;47.514;18.920;2022-12-24T05:09:16;21.20;;;17.00;;
62535;SDS011;63050;47.514;18.920;2022-12-24T05:14:17;19.90;;;16.30;;
62535;SDS011;63050;47.514;18.920;2022-12-24T05:19:18;18.00;;;15.70;;
62535;SDS011;63050;47.514;18.920;2022-12-24T05:24:19;20.30;;;17.00;;
62535;SDS011;63050;47.514;18.920;2022-12-24T05:29:39;19.10;;;16.90;;
62535;SDS011;63050;47.514;18.920;2022-12-24T05:34:40;18.90;;;16.00;;
62535;SDS011;63050;47.514;18.920;2022-12-24T05:39:40;21.10;;;16.20;;
62535;SDS011;63050;47.514;18.920;2022-12-24T05:44:42;20.20;;;14.90;;
62535;SDS011;63050;47.514;18.920;2022-12-24T05:49:43;17.10;;;14.90;;
62535;SDS011;63050;47.514;18.920;2022-12-24T05:54:44;18.90;;;14.60;;
62535;SDS011;63050;47.514;18.920;2022-12-24T05:59:45;19.00;;;14.70;;
62535;SDS011;63050;47.514;18.920;2022-12-24T06:04:48;15.30;;;13.70;;
62535;SDS011;63050;47.514;18.920;2022-12-24T06:09:49;15.90;;;13.40;;
62535;SDS011;63050;47.514;18.920;2022-12-24T06:14:50;17.30;;;14.50;;
62535;SDS011;63050;47.514;18.920;2022-12-24T06:19:52;15.50;;;13.80;;
62535;SDS011;63050;47.514;18.920;2022-12-24T06:24:53;13.00;;;11.60;;
62535;SDS011;63050;47.514;18.920;2022-12-24T06:29:54;13.30;;;11.60;;
62535;SDS011;63050;47.514;18.920;2022-12-24T06:34:55;14.90;;;12.90;;
62535;SDS011;63050;47.514;18.920;2022-12-24T06:39:56;15.20;;;12.80;;
62535;SDS011;63050;47.514;18.920;2022-12-24T06:44:57;14.70;;;11.40;;
62535;SDS011;63050;47.514;18.920;2022-12-24T06:49:58;12.10;;;9.30;;
62535;SDS011;63050;47.514;18.920;2022-12-24T06:54:59;10.30;;;8.50;;
62535;SDS011;63050;47.514;18.920;2022-12-24T07:00:00;10.00;;;7.80;;
62535;SDS011;63050;47.514;18.920;2022-12-24T07:05:01;10.00;;;7.20;;
62535;SDS011;63050;47.514;18.920;2022-12-24T07:10:03;7.90;;;6.20;;
62535;SDS011;63050;47.514;18.920;2022-12-24T07:15:05;9.50;;;6.20;;
62535;SDS011;63050;47.514;18.920;2022-12-24T07:20:07;9.30;;;6.60;;
62535;SDS011;63050;47.514;18.920;2022-12-24T07:25:10;9.20;;;6.10;;
62535;SDS011;63050;47.514;18.920;2022-12-24T07:30:11;8.00;;;5.90;;
62535;SDS011;63050;47.514;18.920;2022-12-24T07:35:13;6.30;;;4.90;;
62535;SDS011;63050;47.514;18.920;2022-12-24T07:40:14;7.10;;;5.60;;
62535;SDS011;63050;47.514;18.920;2022-12-24T07:45:15;5.10;;;4.30;;
62535;SDS011;63050;47.514;18.920;2022-12-24T07:50:16;4.50;;;3.50;;
62535;SDS011;63050;47.514;18.920;2022-12-24T07:55:17;5.80;;;3.90;;
62535;SDS011;63050;47.514;18.920;2022-12-24T08:00:19;5.30;;;3.30;;
62535;SDS011;63050;47.514;18.920;2022-12-24T08:05:20;4.40;;;3.10;;
62535;SDS011;63050;47.514;18.920;2022-12-24T08:10:21;4.80;;;3.20;;
62535;SDS011;63050;47.514;18.920;2022-12-24T08:15:22;3.80;;;2.90;;
62535;SDS011;63050;47.514;18.920;2022-12-24T08:20:23;5.10;;;3.70;;
62535;SDS011;63050;47.514;18.920;2022-12-24T08:25:25;4.50;;;3.30;;
62535;SDS011;63050;47.514;18.920;2022-12-24T08:30:26;4.00;;;2.80;;
62535;SDS011;63050;47.514;18.920;2022-12-24T08:35:27;4.70;;;2.60;;
62535;SDS011;63050;47.514;18.920;2022-12-24T08:40:28;5.00;;;3.40;;
62535;SDS011;63050;47.514;18.920;2022-12-24T08:45:29;5.40;;;4.00;;
62535;SDS011;63050;47.514;18.920;2022-12-24T08:50:30;4.40;;;2.50;;
62535;SDS011;63050;47.514;18.920;2022-12-24T08:55:31;3.60;;;2.40;;
62535;SDS011;63050;47.514;18.920;2022-12-24T09:00:33;3.90;;;2.30;;
62535;SDS011;63050;47.514;18.920;2022-12-24T09:05:38;3.90;;;2.70;;
62535;SDS011;63050;47.514;18.920;2022-12-24T09:10:39;4.30;;;2.60;;
62535;SDS011;63050;47.514;18.920;2022-12-24T09:15:40;3.50;;;2.40;;
62535;SDS011;63050;47.514;18.920;2022-12-24T09:20:41;4.00;;;2.60;;
62535;SDS011;63050;47.514;18.920;2022-12-24T09:25:42;4.10;;;2.60;;
62535;SDS011;63050;47.514;18.920;2022-12-24T09:30:43;4.80;;;2.70;;
62535;SDS011;63050;47.514;18.920;2022-12-24T09:35:44;3.50;;;2.50;;
62535;SDS011;63050;47.514;18.920;2022-12-24T09:40:45;4.10;;;2.50;;
62535;SDS011;63050;47.514;18.920;2022-12-24T09:51:28;6.20;;;2.80;;
62535;SDS011;63050;47.514;18.920;2022-12-24T09:56:38;4.60;;;3.00;;
62535;SDS011;63050;47.514;18.920;2022-12-24T10:01:41;3.90;;;2.30;;
62535;SDS011;63050;47.514;18.920;2022-12-24T10:12:13;3.70;;;2.30;;
62535;SDS011;63050;47.514;18.920;2022-12-24T10:22:54;3.30;;;1.80;;
62535;SDS011;63050;47.514;18.920;2022-12-24T10:28:00;4.30;;;1.70;;
62535;SDS011;63050;47.514;18.920;2022-12-24T10:33:08;4.30;;;2.20;;
62535;SDS011;63050;47.514;18.920;2022-12-24T10:38:16;4.70;;;1.80;;
62535;SDS011;63050;47.514;18.920;2022-12-24T10:43:19;4.10;;;1.50;;
62535;SDS011;63050;47.514;18.920;2022-12-24T10:48:23;4.90;;;2.00;;
62535;SDS011;63050;47.514;18.920;2022-12-24T10:53:31;3.90;;;1.90;;
62535;SDS011;63050;47.514;18.920;2022-12-24T10:58:42;3.80;;;1.70;;
62535;SDS011;63050;47.514;18.920;2022-12-24T11:03:44;2.90;;;1.90;;
62535;SDS011;63050;47.514;18.920;2022-12-24T11:08:45;4.90;;;1.60;;
62535;SDS011;63050;47.514;18.920;2022-12-24T11:18:51;3.40;;;1.10;;
62535;SDS011;63050;47.514;18.920;2022-12-24T11:23:55;3.80;;;1.30;;
62535;SDS011;63050;47.514;18.920;2022-12-24T11:29:19;4.30;;;1.30;;
62535;SDS011;63050;47.514;18.920;2022-12-24T11:34:29;4.60;;;1.50;;
62535;SDS011;63050;47.514;18.920;2022-12-24T11:39:31;2.90;;;0.90;;
62535;SDS011;63050;47.514;18.920;2022-12-24T11:44:45;4.40;;;1.50;;
62535;SDS011;63050;47.514;18.920;2022-12-24T11:49:48;3.70;;;1.00;;
62535;SDS011;63050;47.514;18.920;2022-12-24T12:00:09;3.40;;;1.40;;
62535;SDS011;63050;47.514;18.920;2022-12-24T12:05:22;3.50;;;1.00;;
62535;SDS011;63050;47.514;18.920;2022-12-24T12:10:31;3.20;;;1.00;;
62535;SDS011;63050;47.514;18.920;2022-12-24T12:15:42;5.90;;;1.20;;
62535;SDS011;63050;47.514;18.920;2022-12-24T12:20:45;3.60;;;0.90;;
62535;SDS011;63050;47.514;18.920;2022-12-24T12:25:56;1.60;;;0.90;;
62535;SDS011;63050;47.514;18.920;2022-12-24T12:36:24;2.70;;;1.00;;
62535;SDS011;63050;47.514;18.920;2022-12-24T12:41:37;4.80;;;1.20;;
62535;SDS011;63050;47.514;18.920;2022-12-24T12:52:33;2.60;;;0.90;;
62535;SDS011;63050;47.514;18.920;2022-12-24T12:57:43;4.40;;;0.90;;
62535;SDS011;63050;47.514;18.920;2022-12-24T13:08:25;2.90;;;0.80;;
62535;SDS011;63050;47.514;18.920;2022-12-24T13:13:44;3.20;;;1.10;;
62535;SDS011;63050;47.514;18.920;2022-12-24T13:30:13;2.10;;;0.90;;
62535;SDS011;63050;47.514;18.920;2022-12-24T13:34:55;2.60;;;1.10;;
62535;SDS011;63050;47.514;18.920;2022-12-24T13:51:33;2.90;;;1.20;;
62535;SDS011;63050;47.514;18.920;2022-12-24T13:56:20;2.30;;;1.00;;
62535;SDS011;63050;47.514;18.920;2022-12-24T14:01:33;1.70;;;0.90;;
62535;SDS011;63050;47.514;18.920;2022-12-24T14:06:39;2.80;;;1.00;;
62535;SDS011;63050;47.514;18.920;2022-12-24T14:32:34;1.80;;;1.10;;
62535;SDS011;63050;47.514;18.920;2022-12-24T14:37:37;5.90;;;1.70;;
62535;SDS011;63050;47.514;18.920;2022-12-24T14:58:36;4.30;;;1.50;;
62535;SDS011;63050;47.514;18.920;2022-12-24T15:03:31;4.20;;;1.30;;
62535;SDS011;63050;47.514;18.920;2022-12-24T15:08:35;3.60;;;1.70;;
62535;SDS011;63050;47.514;18.920;2022-12-24T15:13:40;2.50;;;1.20;;
62535;SDS011;63050;47.514;18.920;2022-12-24T15:19:25;4.30;;;1.30;;
62535;SDS011;63050;47.514;18.920;2022-12-24T15:29:25;2.90;;;1.40;;
62535;SDS011;63050;47.514;18.920;2022-12-24T15:34:39;2.50;;;1.20;;
62535;SDS011;63050;47.514;18.920;2022-12-24T15:39:41;4.90;;;1.30;;
62535;SDS011;63050;47.514;18.920;2022-12-24T15:50:15;2.70;;;1.10;;
62535;SDS011;63050;47.514;18.920;2022-12-24T16:00:27;2.30;;;1.00;;
62535;SDS011;63050;47.514;18.920;2022-12-24T16:05:33;3.40;;;1.10;;
62535;SDS011;63050;47.514;18.920;2022-12-24T16:10:39;2.90;;;1.10;;
62535;SDS011;63050;47.514;18.920;2022-12-24T16:16:05;3.30;;;1.10;;
62535;SDS011;63050;47.514;18.920;2022-12-24T16:21:08;3.70;;;1.30;;
62535;SDS011;63050;47.514;18.920;2022-12-24T16:26:09;4.50;;;1.50;;
62535;SDS011;63050;47.514;18.920;2022-12-24T16:31:18;3.10;;;1.20;;
62535;SDS011;63050;47.514;18.920;2022-12-24T16:36:28;2.40;;;1.30;;
62535;SDS011;63050;47.514;18.920;2022-12-24T16:41:29;4.10;;;1.60;;
62535;SDS011;63050;47.514;18.920;2022-12-24T16:46:51;3.20;;;1.30;;
62535;SDS011;63050;47.514;18.920;2022-12-24T16:51:55;4.80;;;1.40;;
62535;SDS011;63050;47.514;18.920;2022-12-24T16:56:56;4.90;;;1.80;;
62535;SDS011;63050;47.514;18.920;2022-12-24T17:01:57;5.30;;;2.10;;
62535;SDS011;63050;47.514;18.920;2022-12-24T17:06:59;6.50;;;3.80;;
62535;SDS011;63050;47.514;18.920;2022-12-24T17:12:00;18.70;;;10.30;;
62535;SDS011;63050;47.514;18.920;2022-12-24T17:17:01;110.50;;;56.90;;
62535;SDS011;63050;47.514;18.920;2022-12-24T17:22:04;56.80;;;35.50;;
62535;SDS011;63050;47.514;18.920;2022-12-24T17:27:05;41.90;;;27.80;;
62535;SDS011;63050;47.514;18.920;2022-12-24T17:32:06;39.60;;;25.70;;
62535;SDS011;63050;47.514;18.920;2022-12-24T17:37:07;21.90;;;15.30;;
62535;SDS011;63050;47.514;18.920;2022-12-24T17:42:08;14.60;;;8.90;;
62535;SDS011;63050;47.514;18.920;2022-12-24T17:47:09;10.70;;;9.40;;
62535;SDS011;63050;47.514;18.920;2022-12-24T17:52:10;11.80;;;8.30;;
62535;SDS011;63050;47.514;18.920;2022-12-24T17:57:12;13.80;;;10.70;;
62535;SDS011;63050;47.514;18.920;2022-12-24T18:02:13;13.30;;;9.30;;
62535;SDS011;63050;47.514;18.920;2022-12-24T18:07:14;12.00;;;7.50;;
62535;SDS011;63050;47.514;18.920;2022-12-24T18:12:15;14.70;;;8.70;;
62535;SDS011;63050;47.514;18.920;2022-12-24T18:17:17;13.80;;;9.30;;
62535;SDS011;63050;47.514;18.920;2022-12-24T18:22:18;13.70;;;8.90;;
62535;SDS011;63050;47.514;18.920;2022-12-24T18:27:19;13.90;;;10.00;;
62535;SDS011;63050;47.514;18.920;2022-12-24T18:32:20;15.20;;;9.50;;
62535;SDS011;63050;47.514;18.920;2022-12-24T18:37:22;13.30;;;9.90;;
62535;SDS011;63050;47.514;18.920;2022-12-24T18:42:23;13.60;;;10.30;;
62535;SDS011;63050;47.514;18.920;2022-12-24T18:47:24;14.70;;;10.90;;
62535;SDS011;63050;47.514;18.920;2022-12-24T18:52:25;22.20;;;16.80;;
62535;SDS011;63050;47.514;18.920;2022-12-24T18:57:31;19.40;;;12.90;;
62535;SDS011;63050;47.514;18.920;2022-12-24T19:02:32;14.60;;;10.50;;
62535;SDS011;63050;47.514;18.920;2022-12-24T19:07:33;14.90;;;10.80;;
62535;SDS011;63050;47.514;18.920;2022-12-24T19:12:34;16.80;;;12.20;;
62535;SDS011;63050;47.514;18.920;2022-12-24T19:17:36;16.30;;;11.00;;
62535;SDS011;63050;47.514;18.920;2022-12-24T19:22:37;14.20;;;9.60;;
62535;SDS011;63050;47.514;18.920;2022-12-24T19:27:38;7.40;;;5.20;;
62535;SDS011;63050;47.514;18.920;2022-12-24T19:32:39;10.10;;;6.80;;
62535;SDS011;63050;47.514;18.920;2022-12-24T19:37:40;8.00;;;3.70;;
62535;SDS011;63050;47.514;18.920;2022-12-24T19:42:41;4.10;;;2.30;;
62535;SDS011;63050;47.514;18.920;2022-12-24T19:47:42;3.90;;;3.20;;
62535;SDS011;63050;47.514;18.920;2022-12-24T19:52:43;5.20;;;2.70;;
62535;SDS011;63050;47.514;18.920;2022-12-24T19:57:44;7.80;;;2.80;;
62535;SDS011;63050;47.514;18.920;2022-12-24T20:02:45;6.40;;;1.60;;
62535;SDS011;63050;47.514;18.920;2022-12-24T20:07:47;4.80;;;2.10;;
62535;SDS011;63050;47.514;18.920;2022-12-24T20:12:48;5.10;;;1.90;;
62535;SDS011;63050;47.514;18.920;2022-12-24T20:17:49;4.80;;;1.80;;
62535;SDS011;63050;47.514;18.920;2022-12-24T20:22:51;3.60;;;1.10;;
62535;SDS011;63050;47.514;18.920;2022-12-24T20:27:53;2.50;;;1.00;;
62535;SDS011;63050;47.514;18.920;2022-12-24T20:32:55;4.30;;;1.20;;
62535;SDS011;63050;47.514;18.920;2022-12-24T20:37:56;2.90;;;1.20;;
62535;SDS011;63050;47.514;18.920;2022-12-24T20:42:57;3.60;;;1.50;;
62535;SDS011;63050;47.514;18.920;2022-12-24T20:47:58;2.90;;;1.20;;
62535;SDS011;63050;47.514;18.920;2022-12-24T20:52:59;2.80;;;1.20;;
62535;SDS011;63050;47.514;18.920;2022-12-24T20:58:00;4.50;;;2.10;;
62535;SDS011;63050;47.514;18.920;2022-12-24T21:03:03;4.10;;;1.50;;
62535;SDS011;63050;47.514;18.920;2022-12-24T21:08:04;3.90;;;1.50;;
62535;SDS011;63050;47.514;18.920;2022-12-24T21:13:05;2.80;;;1.40;;
62535;SDS011;63050;47.514;18.920;2022-12-24T21:18:07;2.80;;;1.20;;
62535;SDS011;63050;47.514;18.920;2022-12-24T21:23:11;5.80;;;1.70;;
62535;SDS011;63050;47.514;18.920;2022-12-24T21:28:12;3.50;;;1.50;;
62535;SDS011;63050;47.514;18.920;2022-12-24T21:33:13;5.90;;;1.70;;
62535;SDS011;63050;47.514;18.920;2022-12-24T21:38:14;4.30;;;1.90;;
62535;SDS011;63050;47.514;18.920;2022-12-24T21:43:15;3.90;;;1.70;;
62535;SDS011;63050;47.514;18.920;2022-12-24T21:48:17;4.60;;;1.90;;
62535;SDS011;63050;47.514;18.920;2022-12-24T21:53:36;4.80;;;1.80;;
62535;SDS011;63050;47.514;18.920;2022-12-24T21:58:56;4.00;;;1.70;;
62535;SDS011;63050;47.514;18.920;2022-12-24T22:03:57;4.10;;;1.70;;
62535;SDS011;63050;47.514;18.920;2022-12-24T22:08:58;4.10;;;1.70;;
62535;SDS011;63050;47.514;18.920;2022-12-24T22:14:18;3.50;;;1.70;;
62535;SDS011;63050;47.514;18.920;2022-12-24T22:19:19;5.20;;;1.70;;
62535;SDS011;63050;47.514;18.920;2022-12-24T22:24:20;4.10;;;2.20;;
62535;SDS011;63050;47.514;18.920;2022-12-24T22:29:21;2.80;;;1.30;;
62535;SDS011;63050;47.514;18.920;2022-12-24T22:34:23;4.70;;;1.70;;
62535;SDS011;63050;47.514;18.920;2022-12-24T22:39:24;3.30;;;1.50;;
62535;SDS011;63050;47.514;18.920;2022-12-24T22:44:25;4.40;;;2.30;;
62535;SDS011;63050;47.514;18.920;2022-12-24T22:49:26;4.20;;;1.40;;
62535;SDS011;63050;47.514;18.920;2022-12-24T22:54:27;4.10;;;1.40;;
62535;SDS011;63050;47.514;18.920;2022-12-24T22:59:28;4.40;;;1.20;;
62535;SDS011;63050;47.514;18.920;2022-12-24T23:04:33;2.70;;;1.30;;
62535;SDS011;63050;47.514;18.920;2022-12-24T23:09:38;6.50;;;1.50;;
62535;SDS011;63050;47.514;18.920;2022-12-24T23:14:40;4.20;;;1.50;;
62535;SDS011;63050;47.514;18.920;2022-12-24T23:19:56;3.80;;;1.10;;
62535;SDS011;63050;47.514;18.920;2022-12-24T23:24:57;5.60;;;1.90;;
62535;SDS011;63050;47.514;18.920;2022-12-24T23:29:58;3.80;;;1.50;;
62535;SDS011;63050;47.514;18.920;2022-12-24T23:34:59;3.90;;;0.90;;
62535;SDS011;63050;47.514;18.920;2022-12-24T23:40:01;4.20;;;1.40;;
62535;SDS011;63050;47.514;18.920;2022-12-24T23:45:03;3.20;;;1.10;;
62535;SDS011;63050;47.514;18.920;2022-12-24T23:50:04;3.30;;;0.90;;
62535;SDS011;63050;47.514;18.920;2022-12-24T23:55:06;2.60;;;1.10;;
